KGUS

Grissom ARB Airport

Peru, Indiana, USA
METAR KGUS 191456Z AUTO 22011KT 10SM CLR M03/M08 A3002 RMK AO2 SLP180 T10321083 55002
Observed Flight Rules
Jan-19 @ 14:56 UTC (33 minutes ago) Visual Flight Rules
Wind Visibility Clouds
220° at 11 knots 10 miles
  • Clear skies
Temperatures Readings
Current -3°C / 27°F
Dewpoint -8°C / 18°F
Humidity 69%
Altimeter 30.02" Hg
Pressure 1018 hPa
Elevation 247
METAR KGUS 191456Z AUTO 22011KT 10SM CLR M03/M08 A3002 RMK AO2 SLP180 T10321083 55002
Observed Flight Rules
Jan-19 @ 14:56 UTC
(33 minutes ago)
VFR
Wind Visibility
220° at 11 knots 10 miles
Clouds
  • Clear skies
Temperature Dewpoint
-3°C / 27°F -8°C / 18°F
Humidity Altimeter Pressure
69% 30.02" Hg 1018 hPa